sensor_id;sensor_type;location;lat;lon;timestamp;pressure;altitude;pressure_sealevel;temperature
18704;BMP180;9481;48.796;9.210;2022-12-29T00:01:36;96130.00;;;14.50
18704;BMP180;9481;48.796;9.210;2022-12-29T00:04:03;96119.00;;;14.50
18704;BMP180;9481;48.796;9.210;2022-12-29T00:06:30;96137.00;;;14.50
18704;BMP180;9481;48.796;9.210;2022-12-29T00:08:56;96127.00;;;14.50
18704;BMP180;9481;48.796;9.210;2022-12-29T00:11:24;96127.00;;;14.50
18704;BMP180;9481;48.796;9.210;2022-12-29T00:13:51;96125.00;;;14.50
18704;BMP180;9481;48.796;9.210;2022-12-29T00:16:36;96126.00;;;14.50
18704;BMP180;9481;48.796;9.210;2022-12-29T00:19:04;96119.00;;;14.50
18704;BMP180;9481;48.796;9.210;2022-12-29T00:21:30;96103.00;;;14.50
18704;BMP180;9481;48.796;9.210;2022-12-29T00:24:21;96104.00;;;14.50
18704;BMP180;9481;48.796;9.210;2022-12-29T00:26:58;96106.00;;;14.50
18704;BMP180;9481;48.796;9.210;2022-12-29T00:29:51;96102.00;;;14.50
18704;BMP180;9481;48.796;9.210;2022-12-29T00:32:36;96097.00;;;14.40
18704;BMP180;9481;48.796;9.210;2022-12-29T00:35:35;96096.00;;;14.40
18704;BMP180;9481;48.796;9.210;2022-12-29T00:38:05;96096.00;;;14.40
18704;BMP180;9481;48.796;9.210;2022-12-29T00:40:50;96092.00;;;14.40
18704;BMP180;9481;48.796;9.210;2022-12-29T00:43:34;96094.00;;;14.40
18704;BMP180;9481;48.796;9.210;2022-12-29T00:46:18;96094.00;;;14.50
18704;BMP180;9481;48.796;9.210;2022-12-29T00:48:44;96091.00;;;14.50
18704;BMP180;9481;48.796;9.210;2022-12-29T00:51:28;96092.00;;;14.50
18704;BMP180;9481;48.796;9.210;2022-12-29T00:53:54;96094.00;;;14.50
18704;BMP180;9481;48.796;9.210;2022-12-29T00:56:20;96096.00;;;14.50
18704;BMP180;9481;48.796;9.210;2022-12-29T00:58:45;96080.00;;;14.50
18704;BMP180;9481;48.796;9.210;2022-12-29T01:01:11;96090.00;;;14.60
18704;BMP180;9481;48.796;9.210;2022-12-29T01:03:37;96086.00;;;14.60
18704;BMP180;9481;48.796;9.210;2022-12-29T01:06:07;96088.00;;;14.60
18704;BMP180;9481;48.796;9.210;2022-12-29T01:08:33;96092.00;;;14.60
18704;BMP180;9481;48.796;9.210;2022-12-29T01:11:11;96090.00;;;14.60
18704;BMP180;9481;48.796;9.210;2022-12-29T01:13:38;96088.00;;;14.70
18704;BMP180;9481;48.796;9.210;2022-12-29T01:16:06;96090.00;;;14.70
18704;BMP180;9481;48.796;9.210;2022-12-29T01:18:32;96101.00;;;14.70
18704;BMP180;9481;48.796;9.210;2022-12-29T01:21:01;96101.00;;;14.70
18704;BMP180;9481;48.796;9.210;2022-12-29T01:23:28;96094.00;;;14.70
18704;BMP180;9481;48.796;9.210;2022-12-29T01:25:54;96103.00;;;14.70
18704;BMP180;9481;48.796;9.210;2022-12-29T01:28:21;96104.00;;;14.80
18704;BMP180;9481;48.796;9.210;2022-12-29T01:30:47;96096.00;;;14.80
18704;BMP180;9481;48.796;9.210;2022-12-29T01:33:13;96096.00;;;14.80
18704;BMP180;9481;48.796;9.210;2022-12-29T01:35:39;96102.00;;;14.80
18704;BMP180;9481;48.796;9.210;2022-12-29T01:38:05;96102.00;;;14.80
18704;BMP180;9481;48.796;9.210;2022-12-29T01:40:31;96105.00;;;14.80
18704;BMP180;9481;48.796;9.210;2022-12-29T01:42:57;96098.00;;;14.90
18704;BMP180;9481;48.796;9.210;2022-12-29T01:45:23;96097.00;;;14.90
18704;BMP180;9481;48.796;9.210;2022-12-29T01:48:03;96094.00;;;14.80
18704;BMP180;9481;48.796;9.210;2022-12-29T01:50:40;96101.00;;;14.90
18704;BMP180;9481;48.796;9.210;2022-12-29T01:53:14;96097.00;;;14.90
18704;BMP180;9481;48.796;9.210;2022-12-29T01:55:48;96094.00;;;14.90
18704;BMP180;9481;48.796;9.210;2022-12-29T01:58:18;96091.00;;;14.90
18704;BMP180;9481;48.796;9.210;2022-12-29T02:00:44;96091.00;;;14.90
18704;BMP180;9481;48.796;9.210;2022-12-29T02:03:11;96088.00;;;14.90
18704;BMP180;9481;48.796;9.210;2022-12-29T02:06:03;96094.00;;;14.90
18704;BMP180;9481;48.796;9.210;2022-12-29T02:08:31;96097.00;;;14.90
18704;BMP180;9481;48.796;9.210;2022-12-29T02:10:59;96080.00;;;15.00
18704;BMP180;9481;48.796;9.210;2022-12-29T02:13:27;96094.00;;;15.00
18704;BMP180;9481;48.796;9.210;2022-12-29T02:22:41;96079.00;;;14.90
18704;BMP180;9481;48.796;9.210;2022-12-29T02:28:31;96079.00;;;14.90
18704;BMP180;9481;48.796;9.210;2022-12-29T02:37:14;96075.00;;;15.00
18704;BMP180;9481;48.796;9.210;2022-12-29T02:40:09;96074.00;;;15.00
18704;BMP180;9481;48.796;9.210;2022-12-29T02:43:18;96066.00;;;15.00
18704;BMP180;9481;48.796;9.210;2022-12-29T02:45:57;96064.00;;;15.00
18704;BMP180;9481;48.796;9.210;2022-12-29T02:48:40;96057.00;;;15.00
18704;BMP180;9481;48.796;9.210;2022-12-29T02:51:27;96060.00;;;15.00
18704;BMP180;9481;48.796;9.210;2022-12-29T02:53:56;96059.00;;;15.10
18704;BMP180;9481;48.796;9.210;2022-12-29T02:56:40;96059.00;;;15.10
18704;BMP180;9481;48.796;9.210;2022-12-29T02:59:07;96055.00;;;15.10
18704;BMP180;9481;48.796;9.210;2022-12-29T03:05:12;96072.00;;;15.10
18704;BMP180;9481;48.796;9.210;2022-12-29T03:08:10;96066.00;;;15.10
18704;BMP180;9481;48.796;9.210;2022-12-29T03:11:02;96054.00;;;15.10
18704;BMP180;9481;48.796;9.210;2022-12-29T03:14:08;96059.00;;;15.10
18704;BMP180;9481;48.796;9.210;2022-12-29T03:17:07;96058.00;;;15.10
18704;BMP180;9481;48.796;9.210;2022-12-29T03:19:47;96057.00;;;15.10
18704;BMP180;9481;48.796;9.210;2022-12-29T03:22:22;96046.00;;;15.10
18704;BMP180;9481;48.796;9.210;2022-12-29T03:25:22;96049.00;;;15.10
18704;BMP180;9481;48.796;9.210;2022-12-29T03:28:01;96051.00;;;15.10
18704;BMP180;9481;48.796;9.210;2022-12-29T03:30:30;96047.00;;;15.10
18704;BMP180;9481;48.796;9.210;2022-12-29T03:33:02;96042.00;;;15.10
18704;BMP180;9481;48.796;9.210;2022-12-29T03:35:34;96038.00;;;15.10
18704;BMP180;9481;48.796;9.210;2022-12-29T03:41:17;96025.00;;;15.10
18704;BMP180;9481;48.796;9.210;2022-12-29T03:43:46;96037.00;;;15.10
18704;BMP180;9481;48.796;9.210;2022-12-29T03:46:12;96035.00;;;15.10
18704;BMP180;9481;48.796;9.210;2022-12-29T03:48:37;96029.00;;;15.20
18704;BMP180;9481;48.796;9.210;2022-12-29T03:51:03;96019.00;;;15.20
18704;BMP180;9481;48.796;9.210;2022-12-29T03:53:29;96024.00;;;15.20
18704;BMP180;9481;48.796;9.210;2022-12-29T03:55:54;96026.00;;;15.20
18704;BMP180;9481;48.796;9.210;2022-12-29T03:58:20;96027.00;;;15.20
18704;BMP180;9481;48.796;9.210;2022-12-29T04:00:46;96018.00;;;15.20
18704;BMP180;9481;48.796;9.210;2022-12-29T04:03:11;96017.00;;;15.20
18704;BMP180;9481;48.796;9.210;2022-12-29T04:05:37;96017.00;;;15.20
18704;BMP180;9481;48.796;9.210;2022-12-29T04:08:02;96030.00;;;15.20
18704;BMP180;9481;48.796;9.210;2022-12-29T04:10:28;96032.00;;;15.20
18704;BMP180;9481;48.796;9.210;2022-12-29T04:12:54;96026.00;;;15.20
18704;BMP180;9481;48.796;9.210;2022-12-29T04:15:19;96024.00;;;15.20
18704;BMP180;9481;48.796;9.210;2022-12-29T04:17:45;96028.00;;;15.20
18704;BMP180;9481;48.796;9.210;2022-12-29T04:20:11;96024.00;;;15.20
18704;BMP180;9481;48.796;9.210;2022-12-29T04:23:03;96030.00;;;15.10
18704;BMP180;9481;48.796;9.210;2022-12-29T04:25:31;96035.00;;;15.20
18704;BMP180;9481;48.796;9.210;2022-12-29T04:27:57;96041.00;;;15.20
18704;BMP180;9481;48.796;9.210;2022-12-29T04:30:22;96052.00;;;15.20
18704;BMP180;9481;48.796;9.210;2022-12-29T04:32:48;96047.00;;;15.20
18704;BMP180;9481;48.796;9.210;2022-12-29T04:35:14;96047.00;;;15.20
18704;BMP180;9481;48.796;9.210;2022-12-29T04:37:40;96043.00;;;15.20
18704;BMP180;9481;48.796;9.210;2022-12-29T04:40:07;96028.00;;;15.20
18704;BMP180;9481;48.796;9.210;2022-12-29T04:42:33;96035.00;;;15.20
18704;BMP180;9481;48.796;9.210;2022-12-29T04:44:58;96034.00;;;15.10
18704;BMP180;9481;48.796;9.210;2022-12-29T04:47:24;96031.00;;;15.20
18704;BMP180;9481;48.796;9.210;2022-12-29T04:49:50;96038.00;;;15.20
18704;BMP180;9481;48.796;9.210;2022-12-29T04:52:15;96022.00;;;15.20
18704;BMP180;9481;48.796;9.210;2022-12-29T04:54:41;96035.00;;;15.20
18704;BMP180;9481;48.796;9.210;2022-12-29T04:57:06;96031.00;;;15.20
18704;BMP180;9481;48.796;9.210;2022-12-29T04:59:32;96029.00;;;15.20
18704;BMP180;9481;48.796;9.210;2022-12-29T05:01:58;96047.00;;;15.20
18704;BMP180;9481;48.796;9.210;2022-12-29T05:04:23;96047.00;;;15.20
18704;BMP180;9481;48.796;9.210;2022-12-29T05:06:49;96048.00;;;15.20
18704;BMP180;9481;48.796;9.210;2022-12-29T05:09:14;96051.00;;;15.20
18704;BMP180;9481;48.796;9.210;2022-12-29T05:11:40;96038.00;;;15.20
18704;BMP180;9481;48.796;9.210;2022-12-29T05:14:06;96065.00;;;15.20
18704;BMP180;9481;48.796;9.210;2022-12-29T05:16:31;96053.00;;;15.20
18704;BMP180;9481;48.796;9.210;2022-12-29T05:18:57;96042.00;;;15.20
18704;BMP180;9481;48.796;9.210;2022-12-29T05:21:23;96039.00;;;15.20
18704;BMP180;9481;48.796;9.210;2022-12-29T05:23:48;96038.00;;;15.20
18704;BMP180;9481;48.796;9.210;2022-12-29T05:26:14;96044.00;;;15.20
18704;BMP180;9481;48.796;9.210;2022-12-29T05:28:40;96037.00;;;15.20
18704;BMP180;9481;48.796;9.210;2022-12-29T05:31:05;96028.00;;;15.20
18704;BMP180;9481;48.796;9.210;2022-12-29T05:33:31;96030.00;;;15.20
18704;BMP180;9481;48.796;9.210;2022-12-29T05:35:57;96027.00;;;15.20
18704;BMP180;9481;48.796;9.210;2022-12-29T05:38:22;96042.00;;;15.20
18704;BMP180;9481;48.796;9.210;2022-12-29T05:40:48;96041.00;;;15.20
18704;BMP180;9481;48.796;9.210;2022-12-29T05:43:14;96029.00;;;15.10
18704;BMP180;9481;48.796;9.210;2022-12-29T05:45:39;96031.00;;;15.20
18704;BMP180;9481;48.796;9.210;2022-12-29T05:48:05;96033.00;;;15.20
18704;BMP180;9481;48.796;9.210;2022-12-29T05:50:31;96029.00;;;15.20
18704;BMP180;9481;48.796;9.210;2022-12-29T05:52:56;96023.00;;;15.20
18704;BMP180;9481;48.796;9.210;2022-12-29T05:55:22;96034.00;;;15.20
18704;BMP180;9481;48.796;9.210;2022-12-29T05:57:47;96030.00;;;15.20
18704;BMP180;9481;48.796;9.210;2022-12-29T06:00:14;96025.00;;;15.20
18704;BMP180;9481;48.796;9.210;2022-12-29T06:02:40;96035.00;;;15.20
18704;BMP180;9481;48.796;9.210;2022-12-29T06:05:06;96023.00;;;15.20
18704;BMP180;9481;48.796;9.210;2022-12-29T06:07:32;96032.00;;;15.20
18704;BMP180;9481;48.796;9.210;2022-12-29T06:09:58;96021.00;;;15.20
18704;BMP180;9481;48.796;9.210;2022-12-29T06:12:23;96016.00;;;15.20
18704;BMP180;9481;48.796;9.210;2022-12-29T06:14:49;96010.00;;;15.20
18704;BMP180;9481;48.796;9.210;2022-12-29T06:17:15;96008.00;;;15.20
18704;BMP180;9481;48.796;9.210;2022-12-29T06:19:40;96009.00;;;15.20
18704;BMP180;9481;48.796;9.210;2022-12-29T06:22:06;96000.00;;;15.20
18704;BMP180;9481;48.796;9.210;2022-12-29T06:24:32;95992.00;;;15.30
18704;BMP180;9481;48.796;9.210;2022-12-29T06:26:58;96011.00;;;15.30
18704;BMP180;9481;48.796;9.210;2022-12-29T06:29:24;96014.00;;;15.30
18704;BMP180;9481;48.796;9.210;2022-12-29T06:31:49;96011.00;;;15.30
18704;BMP180;9481;48.796;9.210;2022-12-29T06:34:16;96012.00;;;15.30
18704;BMP180;9481;48.796;9.210;2022-12-29T06:36:42;96020.00;;;15.30
18704;BMP180;9481;48.796;9.210;2022-12-29T06:39:07;96020.00;;;15.30
18704;BMP180;9481;48.796;9.210;2022-12-29T06:41:33;96017.00;;;15.30
18704;BMP180;9481;48.796;9.210;2022-12-29T06:43:59;96021.00;;;15.30
18704;BMP180;9481;48.796;9.210;2022-12-29T06:46:24;96032.00;;;15.30
18704;BMP180;9481;48.796;9.210;2022-12-29T06:48:50;96028.00;;;15.30
18704;BMP180;9481;48.796;9.210;2022-12-29T06:51:15;96027.00;;;15.30
18704;BMP180;9481;48.796;9.210;2022-12-29T06:53:41;96027.00;;;15.30
18704;BMP180;9481;48.796;9.210;2022-12-29T06:56:07;96031.00;;;15.30
18704;BMP180;9481;48.796;9.210;2022-12-29T06:58:33;96013.00;;;15.30
18704;BMP180;9481;48.796;9.210;2022-12-29T07:00:58;96001.00;;;15.30
18704;BMP180;9481;48.796;9.210;2022-12-29T07:03:24;96011.00;;;15.30
18704;BMP180;9481;48.796;9.210;2022-12-29T07:05:50;96017.00;;;15.30
18704;BMP180;9481;48.796;9.210;2022-12-29T07:08:16;96017.00;;;15.30
18704;BMP180;9481;48.796;9.210;2022-12-29T07:10:41;96025.00;;;15.30
18704;BMP180;9481;48.796;9.210;2022-12-29T07:13:07;96028.00;;;15.30
18704;BMP180;9481;48.796;9.210;2022-12-29T07:15:38;96017.00;;;15.30
18704;BMP180;9481;48.796;9.210;2022-12-29T07:18:04;96011.00;;;15.30
18704;BMP180;9481;48.796;9.210;2022-12-29T07:20:30;96022.00;;;15.30
18704;BMP180;9481;48.796;9.210;2022-12-29T07:22:56;96015.00;;;15.30
18704;BMP180;9481;48.796;9.210;2022-12-29T07:25:22;96009.00;;;15.30
18704;BMP180;9481;48.796;9.210;2022-12-29T07:27:48;96017.00;;;15.30
18704;BMP180;9481;48.796;9.210;2022-12-29T07:30:15;96016.00;;;15.30
18704;BMP180;9481;48.796;9.210;2022-12-29T07:32:41;96018.00;;;15.30
18704;BMP180;9481;48.796;9.210;2022-12-29T07:35:07;96020.00;;;15.30
18704;BMP180;9481;48.796;9.210;2022-12-29T07:37:33;96023.00;;;15.30
18704;BMP180;9481;48.796;9.210;2022-12-29T07:40:01;96022.00;;;15.30
18704;BMP180;9481;48.796;9.210;2022-12-29T07:42:26;96023.00;;;15.30
18704;BMP180;9481;48.796;9.210;2022-12-29T07:44:52;96030.00;;;15.30
18704;BMP180;9481;48.796;9.210;2022-12-29T07:47:18;96030.00;;;15.40
18704;BMP180;9481;48.796;9.210;2022-12-29T07:49:44;96030.00;;;15.40
18704;BMP180;9481;48.796;9.210;2022-12-29T07:52:09;96028.00;;;15.40
18704;BMP180;9481;48.796;9.210;2022-12-29T07:54:35;96035.00;;;15.40
18704;BMP180;9481;48.796;9.210;2022-12-29T07:57:00;96031.00;;;15.40
18704;BMP180;9481;48.796;9.210;2022-12-29T07:59:26;96044.00;;;15.40
18704;BMP180;9481;48.796;9.210;2022-12-29T08:01:52;96030.00;;;15.40
18704;BMP180;9481;48.796;9.210;2022-12-29T08:04:18;96026.00;;;15.50
18704;BMP180;9481;48.796;9.210;2022-12-29T08:06:43;96035.00;;;15.50
18704;BMP180;9481;48.796;9.210;2022-12-29T08:09:11;96027.00;;;15.50
18704;BMP180;9481;48.796;9.210;2022-12-29T08:11:37;96038.00;;;15.50
18704;BMP180;9481;48.796;9.210;2022-12-29T08:14:03;96043.00;;;15.50
18704;BMP180;9481;48.796;9.210;2022-12-29T08:16:29;96049.00;;;15.50
18704;BMP180;9481;48.796;9.210;2022-12-29T08:18:54;96048.00;;;15.60
18704;BMP180;9481;48.796;9.210;2022-12-29T08:21:20;96052.00;;;15.60
18704;BMP180;9481;48.796;9.210;2022-12-29T08:23:47;96059.00;;;15.60
18704;BMP180;9481;48.796;9.210;2022-12-29T08:26:13;96056.00;;;15.60
18704;BMP180;9481;48.796;9.210;2022-12-29T08:28:38;96053.00;;;15.60
18704;BMP180;9481;48.796;9.210;2022-12-29T08:31:05;96059.00;;;15.70
18704;BMP180;9481;48.796;9.210;2022-12-29T08:33:30;96059.00;;;15.70
18704;BMP180;9481;48.796;9.210;2022-12-29T08:36:02;96054.00;;;15.70
18704;BMP180;9481;48.796;9.210;2022-12-29T08:38:29;96047.00;;;15.70
18704;BMP180;9481;48.796;9.210;2022-12-29T08:40:56;96043.00;;;15.70
18704;BMP180;9481;48.796;9.210;2022-12-29T08:43:23;96048.00;;;15.70
18704;BMP180;9481;48.796;9.210;2022-12-29T08:45:49;96048.00;;;15.70
18704;BMP180;9481;48.796;9.210;2022-12-29T08:48:15;96032.00;;;15.80
18704;BMP180;9481;48.796;9.210;2022-12-29T08:50:45;96042.00;;;15.80
18704;BMP180;9481;48.796;9.210;2022-12-29T08:53:11;96047.00;;;15.80
18704;BMP180;9481;48.796;9.210;2022-12-29T08:55:36;96032.00;;;15.80
18704;BMP180;9481;48.796;9.210;2022-12-29T08:58:02;96027.00;;;15.80
18704;BMP180;9481;48.796;9.210;2022-12-29T09:00:28;96042.00;;;15.80
18704;BMP180;9481;48.796;9.210;2022-12-29T09:02:54;96040.00;;;15.80
18704;BMP180;9481;48.796;9.210;2022-12-29T09:05:19;96042.00;;;15.80
18704;BMP180;9481;48.796;9.210;2022-12-29T09:07:45;96054.00;;;15.80
18704;BMP180;9481;48.796;9.210;2022-12-29T09:10:11;96050.00;;;15.80
18704;BMP180;9481;48.796;9.210;2022-12-29T09:12:36;96064.00;;;15.80
18704;BMP180;9481;48.796;9.210;2022-12-29T09:15:03;96067.00;;;15.80
18704;BMP180;9481;48.796;9.210;2022-12-29T09:17:29;96070.00;;;15.80
18704;BMP180;9481;48.796;9.210;2022-12-29T09:20:12;96078.00;;;15.80
18704;BMP180;9481;48.796;9.210;2022-12-29T09:22:38;96083.00;;;15.80
18704;BMP180;9481;48.796;9.210;2022-12-29T09:25:05;96073.00;;;15.90
18704;BMP180;9481;48.796;9.210;2022-12-29T09:27:31;96082.00;;;15.90
18704;BMP180;9481;48.796;9.210;2022-12-29T09:29:56;96084.00;;;15.90
18704;BMP180;9481;48.796;9.210;2022-12-29T09:32:22;96084.00;;;15.90
18704;BMP180;9481;48.796;9.210;2022-12-29T09:34:48;96088.00;;;16.00
18704;BMP180;9481;48.796;9.210;2022-12-29T09:37:14;96094.00;;;16.00
18704;BMP180;9481;48.796;9.210;2022-12-29T09:39:39;96086.00;;;16.00
18704;BMP180;9481;48.796;9.210;2022-12-29T09:42:27;96096.00;;;16.00
18704;BMP180;9481;48.796;9.210;2022-12-29T09:45:14;96102.00;;;16.00
18704;BMP180;9481;48.796;9.210;2022-12-29T09:47:45;96101.00;;;16.00
18704;BMP180;9481;48.796;9.210;2022-12-29T09:50:21;96085.00;;;16.10
18704;BMP180;9481;48.796;9.210;2022-12-29T09:53:00;96094.00;;;16.10
18704;BMP180;9481;48.796;9.210;2022-12-29T09:55:42;96089.00;;;16.10
18704;BMP180;9481;48.796;9.210;2022-12-29T09:58:58;96078.00;;;16.10
18704;BMP180;9481;48.796;9.210;2022-12-29T10:01:57;96085.00;;;16.10
18704;BMP180;9481;48.796;9.210;2022-12-29T10:04:28;96088.00;;;16.20
18704;BMP180;9481;48.796;9.210;2022-12-29T10:07:02;96089.00;;;16.20
18704;BMP180;9481;48.796;9.210;2022-12-29T10:09:42;96086.00;;;16.20
18704;BMP180;9481;48.796;9.210;2022-12-29T10:12:49;96084.00;;;16.20
18704;BMP180;9481;48.796;9.210;2022-12-29T10:15:46;96092.00;;;16.20
18704;BMP180;9481;48.796;9.210;2022-12-29T10:24:10;96086.00;;;16.20
18704;BMP180;9481;48.796;9.210;2022-12-29T10:26:41;96079.00;;;16.30
18704;BMP180;9481;48.796;9.210;2022-12-29T10:29:27;96099.00;;;16.20
18704;BMP180;9481;48.796;9.210;2022-12-29T10:32:05;96089.00;;;16.30
18704;BMP180;9481;48.796;9.210;2022-12-29T10:34:40;96093.00;;;16.30
18704;BMP180;9481;48.796;9.210;2022-12-29T10:37:32;96088.00;;;16.30
18704;BMP180;9481;48.796;9.210;2022-12-29T10:40:24;96095.00;;;16.30
18704;BMP180;9481;48.796;9.210;2022-12-29T10:42:55;96080.00;;;16.40
18704;BMP180;9481;48.796;9.210;2022-12-29T10:45:27;96086.00;;;16.40
18704;BMP180;9481;48.796;9.210;2022-12-29T10:47:59;96079.00;;;16.50
18704;BMP180;9481;48.796;9.210;2022-12-29T10:50:27;96077.00;;;16.60
18704;BMP180;9481;48.796;9.210;2022-12-29T10:52:59;96079.00;;;16.70
18704;BMP180;9481;48.796;9.210;2022-12-29T10:55:32;96089.00;;;16.70
18704;BMP180;9481;48.796;9.210;2022-12-29T10:58:04;96074.00;;;16.80
18704;BMP180;9481;48.796;9.210;2022-12-29T11:00:31;96090.00;;;16.80
18704;BMP180;9481;48.796;9.210;2022-12-29T11:03:35;96087.00;;;16.80
18704;BMP180;9481;48.796;9.210;2022-12-29T11:06:15;96088.00;;;16.80
18704;BMP180;9481;48.796;9.210;2022-12-29T11:08:59;96087.00;;;16.80
18704;BMP180;9481;48.796;9.210;2022-12-29T11:11:35;96084.00;;;16.80
18704;BMP180;9481;48.796;9.210;2022-12-29T11:14:14;96079.00;;;16.80
18704;BMP180;9481;48.796;9.210;2022-12-29T11:16:43;96087.00;;;16.80
18704;BMP180;9481;48.796;9.210;2022-12-29T11:19:22;96094.00;;;16.70
18704;BMP180;9481;48.796;9.210;2022-12-29T11:21:48;96087.00;;;16.80
18704;BMP180;9481;48.796;9.210;2022-12-29T11:24:27;96089.00;;;16.80
18704;BMP180;9481;48.796;9.210;2022-12-29T11:27:08;96085.00;;;16.80
18704;BMP180;9481;48.796;9.210;2022-12-29T11:29:40;96087.00;;;16.80
18704;BMP180;9481;48.796;9.210;2022-12-29T11:32:26;96087.00;;;16.80
18704;BMP180;9481;48.796;9.210;2022-12-29T11:34:53;96110.00;;;16.80
18704;BMP180;9481;48.796;9.210;2022-12-29T11:37:36;96101.00;;;16.70
18704;BMP180;9481;48.796;9.210;2022-12-29T11:40:18;96107.00;;;16.70
18704;BMP180;9481;48.796;9.210;2022-12-29T11:42:54;96094.00;;;16.70
18704;BMP180;9481;48.796;9.210;2022-12-29T11:45:25;96092.00;;;16.70
18704;BMP180;9481;48.796;9.210;2022-12-29T11:48:01;96079.00;;;16.80
18704;BMP180;9481;48.796;9.210;2022-12-29T11:50:35;96088.00;;;16.80
18704;BMP180;9481;48.796;9.210;2022-12-29T11:56:16;96094.00;;;16.80
18704;BMP180;9481;48.796;9.210;2022-12-29T11:58:42;96097.00;;;16.90
18704;BMP180;9481;48.796;9.210;2022-12-29T12:01:21;96101.00;;;16.90
18704;BMP180;9481;48.796;9.210;2022-12-29T12:04:17;96096.00;;;16.80
18704;BMP180;9481;48.796;9.210;2022-12-29T12:07:04;96078.00;;;16.80
18704;BMP180;9481;48.796;9.210;2022-12-29T12:09:58;96084.00;;;16.80
18704;BMP180;9481;48.796;9.210;2022-12-29T12:12:39;96093.00;;;16.80
18704;BMP180;9481;48.796;9.210;2022-12-29T12:15:20;96079.00;;;16.80
18704;BMP180;9481;48.796;9.210;2022-12-29T12:18:08;96089.00;;;16.70
18704;BMP180;9481;48.796;9.210;2022-12-29T12:20:49;96082.00;;;16.70
18704;BMP180;9481;48.796;9.210;2022-12-29T12:23:32;96080.00;;;16.70
18704;BMP180;9481;48.796;9.210;2022-12-29T12:26:12;96079.00;;;16.70
18704;BMP180;9481;48.796;9.210;2022-12-29T12:29:03;96085.00;;;16.70
18704;BMP180;9481;48.796;9.210;2022-12-29T12:31:55;96085.00;;;16.70
18704;BMP180;9481;48.796;9.210;2022-12-29T12:34:30;96081.00;;;16.70
18704;BMP180;9481;48.796;9.210;2022-12-29T12:37:47;96084.00;;;16.70
18704;BMP180;9481;48.796;9.210;2022-12-29T12:43:32;96078.00;;;16.60
18704;BMP180;9481;48.796;9.210;2022-12-29T12:46:16;96083.00;;;16.60
18704;BMP180;9481;48.796;9.210;2022-12-29T12:52:15;96078.00;;;16.60
18704;BMP180;9481;48.796;9.210;2022-12-29T12:57:50;96076.00;;;16.60
18704;BMP180;9481;48.796;9.210;2022-12-29T13:00:20;96072.00;;;16.70
18704;BMP180;9481;48.796;9.210;2022-12-29T13:03:13;96068.00;;;16.60
18704;BMP180;9481;48.796;9.210;2022-12-29T13:12:10;96062.00;;;17.60
18704;BMP180;9481;48.796;9.210;2022-12-29T13:17:46;96056.00;;;18.40
18704;BMP180;9481;48.796;9.210;2022-12-29T13:20:46;96057.00;;;18.70
18704;BMP180;9481;48.796;9.210;2022-12-29T13:23:44;96059.00;;;19.10
18704;BMP180;9481;48.796;9.210;2022-12-29T13:26:48;96061.00;;;19.60
18704;BMP180;9481;48.796;9.210;2022-12-29T13:30:04;96063.00;;;19.80
18704;BMP180;9481;48.796;9.210;2022-12-29T13:33:04;96066.00;;;19.70
18704;BMP180;9481;48.796;9.210;2022-12-29T13:38:44;96055.00;;;19.10
18704;BMP180;9481;48.796;9.210;2022-12-29T13:41:43;96058.00;;;18.80
18704;BMP180;9481;48.796;9.210;2022-12-29T13:44:19;96056.00;;;18.60
18704;BMP180;9481;48.796;9.210;2022-12-29T13:46:46;96059.00;;;18.40
18704;BMP180;9481;48.796;9.210;2022-12-29T13:49:21;96057.00;;;18.10
18704;BMP180;9481;48.796;9.210;2022-12-29T13:51:56;96048.00;;;18.00
18704;BMP180;9481;48.796;9.210;2022-12-29T13:54:43;96048.00;;;17.80
18704;BMP180;9481;48.796;9.210;2022-12-29T14:00:22;96052.00;;;17.60
18704;BMP180;9481;48.796;9.210;2022-12-29T14:06:12;96044.00;;;17.30
18704;BMP180;9481;48.796;9.210;2022-12-29T14:08:39;96038.00;;;17.30
18704;BMP180;9481;48.796;9.210;2022-12-29T14:11:15;96045.00;;;17.30
18704;BMP180;9481;48.796;9.210;2022-12-29T14:13:45;96036.00;;;17.30
18704;BMP180;9481;48.796;9.210;2022-12-29T14:16:34;96032.00;;;17.20
18704;BMP180;9481;48.796;9.210;2022-12-29T14:19:15;96042.00;;;17.20
18704;BMP180;9481;48.796;9.210;2022-12-29T14:22:12;96059.00;;;17.20
18704;BMP180;9481;48.796;9.210;2022-12-29T14:24:45;96055.00;;;17.10
18704;BMP180;9481;48.796;9.210;2022-12-29T14:34:48;96059.00;;;17.00
18704;BMP180;9481;48.796;9.210;2022-12-29T14:37:32;96045.00;;;16.90
18704;BMP180;9481;48.796;9.210;2022-12-29T14:40:23;96059.00;;;16.90
18704;BMP180;9481;48.796;9.210;2022-12-29T14:42:54;96054.00;;;16.90
18704;BMP180;9481;48.796;9.210;2022-12-29T14:47:49;96066.00;;;16.90
18704;BMP180;9481;48.796;9.210;2022-12-29T14:50:38;96062.00;;;16.90
18704;BMP180;9481;48.796;9.210;2022-12-29T14:53:06;96063.00;;;16.90
18704;BMP180;9481;48.796;9.210;2022-12-29T14:55:57;96067.00;;;16.90
18704;BMP180;9481;48.796;9.210;2022-12-29T14:58:46;96059.00;;;16.80
18704;BMP180;9481;48.796;9.210;2022-12-29T15:01:47;96056.00;;;16.80
18704;BMP180;9481;48.796;9.210;2022-12-29T15:04:30;96060.00;;;16.80
18704;BMP180;9481;48.796;9.210;2022-12-29T15:06:57;96055.00;;;16.80
18704;BMP180;9481;48.796;9.210;2022-12-29T15:09:59;96059.00;;;16.70
18704;BMP180;9481;48.796;9.210;2022-12-29T15:12:41;96067.00;;;16.70
18704;BMP180;9481;48.796;9.210;2022-12-29T15:15:24;96061.00;;;16.70
18704;BMP180;9481;48.796;9.210;2022-12-29T15:17:50;96062.00;;;16.70
18704;BMP180;9481;48.796;9.210;2022-12-29T15:20:30;96052.00;;;16.70
18704;BMP180;9481;48.796;9.210;2022-12-29T15:23:04;96054.00;;;16.70
18704;BMP180;9481;48.796;9.210;2022-12-29T15:25:33;96048.00;;;16.60
18704;BMP180;9481;48.796;9.210;2022-12-29T15:28:06;96055.00;;;16.60
18704;BMP180;9481;48.796;9.210;2022-12-29T15:30:32;96054.00;;;16.60
18704;BMP180;9481;48.796;9.210;2022-12-29T15:32:58;96044.00;;;16.60
18704;BMP180;9481;48.796;9.210;2022-12-29T15:35:37;96058.00;;;16.50
18704;BMP180;9481;48.796;9.210;2022-12-29T15:38:16;96061.00;;;16.50
18704;BMP180;9481;48.796;9.210;2022-12-29T15:40:44;96048.00;;;16.50
18704;BMP180;9481;48.796;9.210;2022-12-29T15:46:05;96063.00;;;16.50
18704;BMP180;9481;48.796;9.210;2022-12-29T15:48:31;96061.00;;;16.50
18704;BMP180;9481;48.796;9.210;2022-12-29T15:50:58;96068.00;;;16.50
18704;BMP180;9481;48.796;9.210;2022-12-29T15:53:32;96075.00;;;16.50
18704;BMP180;9481;48.796;9.210;2022-12-29T15:56:08;96084.00;;;16.40
18704;BMP180;9481;48.796;9.210;2022-12-29T15:58:49;96085.00;;;16.40
18704;BMP180;9481;48.796;9.210;2022-12-29T16:01:35;96094.00;;;16.40
18704;BMP180;9481;48.796;9.210;2022-12-29T16:04:06;96098.00;;;16.40
18704;BMP180;9481;48.796;9.210;2022-12-29T16:09:42;96105.00;;;16.40
18704;BMP180;9481;48.796;9.210;2022-12-29T16:12:25;96112.00;;;16.50